Time;durP1;ratioP1;P1;durP2;ratioP2;P2;SDS_P1;SDS_P2;PMS_P1;PMS_P2;Temp;Humidity;BMP_temperature;BMP_pressure;BME280_temperature;BME280_humidity;BME280_pressure;Samples;Min_cycle;Max_cycle;Signal;HPM_P1;HPM_P2
2023/04/08 00:02:04;;;;;;;2.90;2.40;;;9.10;44.00;;;;;;5019455;28;20042;-75
2023/04/08 00:04:30;;;;;;;3.00;2.42;;;9.10;44.10;;;;;;5023912;28;20029;-75
2023/04/08 00:06:56;;;;;;;7.10;3.47;;;9.00;44.00;;;;;;4998582;28;20045;-75
2023/04/08 00:09:22;;;;;;;2.53;2.22;;;9.00;44.10;;;;;;5018798;28;20116;-75
2023/04/08 00:11:48;;;;;;;3.30;2.40;;;9.00;44.20;;;;;;5021677;28;20143;-75
2023/04/08 00:14:14;;;;;;;3.20;2.58;;;8.90;44.10;;;;;;5003995;28;20022;-79
2023/04/08 00:16:40;;;;;;;3.67;2.35;;;8.90;44.20;;;;;;5023356;28;20033;-79
2023/04/08 00:19:06;;;;;;;3.10;1.98;;;8.90;44.30;;;;;;5006418;28;20037;-78
2023/04/08 00:21:32;;;;;;;3.33;2.35;;;8.80;44.20;;;;;;5024064;28;20185;-76
2023/04/08 00:23:57;;;;;;;2.85;2.42;;;8.80;44.40;;;;;;5003187;28;20057;-76
2023/04/08 00:26:23;;;;;;;3.90;2.72;;;8.80;44.40;;;;;;5023785;28;20045;-77
2023/04/08 00:28:49;;;;;;;3.47;2.55;;;8.70;44.30;;;;;;5005868;28;20481;-76
2023/04/08 00:31:16;;;;;;;4.95;2.47;;;8.70;44.40;;;;;;4992039;28;20060;-76
2023/04/08 00:33:41;;;;;;;3.75;2.58;;;8.60;44.90;;;;;;5005047;28;20453;-77
2023/04/08 00:36:09;;;;;;;4.43;3.22;;;8.60;44.50;;;;;;5013093;28;20029;-77
2023/04/08 00:38:38;;;;;;;3.50;2.97;;;8.60;44.60;;;;;;4986127;28;20445;-76
2023/04/08 00:41:04;;;;;;;3.92;3.15;;;8.60;44.60;;;;;;5022918;28;20112;-77
2023/04/08 00:43:30;;;;;;;3.55;2.50;;;8.50;44.50;;;;;;5021483;28;20029;-78
2023/04/08 00:45:56;;;;;;;4.00;2.40;;;8.50;44.60;;;;;;5015951;28;20524;-79
2023/04/08 00:48:22;;;;;;;4.47;2.20;;;8.40;44.60;;;;;;5010830;28;20084;-78
2023/04/08 00:50:47;;;;;;;4.25;2.70;;;8.40;44.60;;;;;;5003030;28;20034;-81
2023/04/08 00:53:17;;;;;;;3.03;2.33;;;8.40;44.70;;;;;;4986592;28;20132;-77
2023/04/08 00:55:43;;;;;;;5.63;2.97;;;8.40;44.80;;;;;;5007211;28;20132;-77
2023/04/08 00:58:10;;;;;;;3.40;2.83;;;8.30;44.70;;;;;;5018278;28;20038;-77
2023/04/08 01:00:42;;;;;;;4.78;2.58;;;8.30;44.80;;;;;;4983560;28;20045;-77
2023/04/08 01:03:24;;;;;;;;;;;8.30;44.90;;;;;;5019400;28;20041;-80
2023/04/08 01:06:22;;;;;;;5.97;2.88;;;8.30;45.00;;;;;;5003805;28;20276;-77
2023/04/08 01:08:51;;;;;;;3.15;2.65;;;8.20;44.70;;;;;;4994760;28;20073;-77
2023/04/08 01:11:17;;;;;;;5.90;3.00;;;8.20;44.70;;;;;;5018640;28;20039;-79
2023/04/08 01:13:45;;;;;;;3.92;2.80;;;8.10;44.60;;;;;;4993024;28;20386;-77
2023/04/08 01:16:14;;;;;;;4.28;2.60;;;8.10;44.70;;;;;;5017954;28;20042;-76
2023/04/08 01:18:43;;;;;;;3.78;2.90;;;8.10;44.90;;;;;;4989150;28;20029;-77
2023/04/08 01:21:12;;;;;;;5.18;2.85;;;8.00;44.80;;;;;;5020699;28;20034;-76
2023/04/08 01:24:01;;;;;;;3.28;2.38;;;8.00;45.00;;;;;;5019359;28;20116;-76
2023/04/08 01:26:27;;;;;;;4.05;2.67;;;8.00;45.20;;;;;;5005110;28;20029;-76
2023/04/08 01:28:57;;;;;;;3.55;2.78;;;8.00;45.10;;;;;;4988660;28;20034;-77
2023/04/08 01:31:25;;;;;;;3.05;2.53;;;7.90;45.10;;;;;;5014511;28;20067;-75
2023/04/08 01:33:51;;;;;;;4.65;2.95;;;7.90;45.10;;;;;;5016205;28;20567;-75
2023/04/08 01:36:20;;;;;;;3.20;2.40;;;7.90;45.20;;;;;;5005287;28;20037;-75
2023/04/08 01:38:48;;;;;;;3.60;2.25;;;7.90;45.30;;;;;;5014849;28;20068;-75
2023/04/08 01:41:16;;;;;;;5.70;2.42;;;7.80;45.20;;;;;;5022649;28;20623;-75
2023/04/08 01:43:43;;;;;;;3.03;2.30;;;7.80;45.30;;;;;;5019611;28;20033;-75
2023/04/08 01:46:11;;;;;;;4.75;2.67;;;7.80;45.40;;;;;;5013182;28;20044;-77
2023/04/08 01:48:39;;;;;;;2.97;2.28;;;7.70;45.30;;;;;;5031902;28;20064;-74
2023/04/08 01:51:06;;;;;;;2.88;2.40;;;7.70;45.40;;;;;;5013985;28;20705;-75
2023/04/08 01:53:33;;;;;;;2.72;2.30;;;7.70;45.50;;;;;;5021133;28;20727;-74
2023/04/08 01:56:08;;;;;;;3.75;2.55;;;7.60;45.30;;;;;;5018805;28;20029;-74
2023/04/08 01:58:39;;;;;;;3.03;2.15;;;7.60;46.00;;;;;;5017161;28;20431;-74
2023/04/08 02:01:10;;;;;;;4.18;2.35;;;7.60;45.50;;;;;;5020102;28;20082;-75
2023/04/08 02:03:37;;;;;;;3.80;2.50;;;7.50;45.40;;;;;;5021111;28;20370;-76
2023/04/08 02:06:04;;;;;;;3.83;2.63;;;7.50;45.50;;;;;;5025735;28;20037;-75
2023/04/08 02:08:32;;;;;;;3.53;2.55;;;7.50;45.60;;;;;;5022739;28;20079;-75
2023/04/08 02:10:58;;;;;;;2.75;2.28;;;7.40;45.50;;;;;;5013862;28;20045;-74
2023/04/08 02:13:24;;;;;;;3.40;2.30;;;7.40;45.60;;;;;;5023562;28;20113;-76
2023/04/08 02:16:02;;;;;;;2.22;2.03;;;7.40;45.60;;;;;;5020857;28;20135;-75
2023/04/08 02:18:30;;;;;;;2.55;1.90;;;7.40;45.80;;;;;;5025081;28;20121;-75
2023/04/08 02:21:05;;;;;;;5.50;1.98;;;7.30;45.60;;;;;;5025586;28;20072;-75
2023/04/08 02:23:37;;;;;;;2.95;2.20;;;7.30;45.60;;;;;;5022313;28;20029;-75
2023/04/08 02:26:05;;;;;;;4.35;2.28;;;7.30;45.80;;;;;;5025343;28;20025;-75
2023/04/08 02:28:34;;;;;;;2.92;2.00;;;7.30;45.80;;;;;;5024532;28;20048;-77
2023/04/08 02:31:02;;;;;;;2.47;2.03;;;7.30;45.90;;;;;;5025170;28;20065;-77
2023/04/08 02:33:28;;;;;;;2.90;2.10;;;7.20;45.80;;;;;;5024716;28;20045;-76
2023/04/08 02:35:56;;;;;;;2.17;1.75;;;7.20;45.90;;;;;;5021114;28;20037;-77
2023/04/08 02:38:22;;;;;;;4.47;2.53;;;7.20;45.90;;;;;;5023276;28;20045;-76
2023/04/08 02:40:50;;;;;;;4.97;2.97;;;7.20;46.00;;;;;;5021898;28;20045;-75
2023/04/08 02:43:16;;;;;;;2.90;2.28;;;7.20;46.10;;;;;;5031565;28;20038;-76
2023/04/08 02:45:42;;;;;;;3.00;2.13;;;7.20;46.10;;;;;;5022105;28;20033;-76
2023/04/08 02:48:09;;;;;;;4.60;1.95;;;7.10;46.00;;;;;;5023371;28;20092;-76
2023/04/08 02:50:35;;;;;;;2.70;1.98;;;7.10;46.10;;;;;;5014870;28;20038;-76
2023/04/08 02:53:01;;;;;;;4.75;2.20;;;7.10;46.20;;;;;;5024069;28;20025;-76
2023/04/08 02:55:29;;;;;;;2.97;2.65;;;7.10;46.30;;;;;;5019453;28;20026;-77
2023/04/08 02:57:55;;;;;;;4.57;2.58;;;7.00;46.20;;;;;;5017385;28;20060;-76
2023/04/08 03:00:21;;;;;;;2.58;1.98;;;7.00;46.20;;;;;;5012254;28;20489;-76
2023/04/08 03:02:47;;;;;;;2.40;1.92;;;7.00;46.30;;;;;;5019502;28;20042;-76
2023/04/08 03:05:15;;;;;;;7.20;2.95;;;6.90;46.20;;;;;;5021218;28;20560;-77
2023/04/08 03:07:41;;;;;;;5.63;2.28;;;6.90;46.20;;;;;;5018384;28;20038;-76
2023/04/08 03:10:07;;;;;;;3.75;2.55;;;6.90;46.30;;;;;;5020815;28;20040;-75
2023/04/08 03:12:33;;;;;;;2.70;2.13;;;6.90;46.40;;;;;;5015698;28;20489;-75
2023/04/08 03:15:00;;;;;;;2.80;2.13;;;6.90;46.50;;;;;;5019523;28;20048;-76
2023/04/08 03:17:26;;;;;;;3.17;1.92;;;6.90;46.50;;;;;;5026648;28;20026;-76
2023/04/08 03:19:52;;;;;;;2.30;2.10;;;6.90;46.60;;;;;;5020204;28;20057;-75
2023/04/08 03:22:18;;;;;;;4.93;2.20;;;6.90;46.70;;;;;;5026728;28;20029;-76
2023/04/08 03:24:44;;;;;;;4.15;2.45;;;6.80;46.50;;;;;;5020552;28;20037;-75
2023/04/08 03:27:11;;;;;;;3.10;2.10;;;6.90;46.80;;;;;;5019463;28;20042;-76
2023/04/08 03:29:37;;;;;;;3.10;2.00;;;6.80;46.60;;;;;;5026585;28;20406;-75
2023/04/08 03:32:03;;;;;;;3.80;2.35;;;6.80;47.20;;;;;;5027995;28;20497;-74
2023/04/08 03:34:29;;;;;;;6.07;2.20;;;6.80;46.80;;;;;;5027873;28;20025;-75
2023/04/08 03:36:55;;;;;;;2.92;2.17;;;6.70;46.60;;;;;;5024325;28;20033;-74
2023/04/08 03:39:21;;;;;;;3.17;1.63;;;6.70;46.60;;;;;;5026209;28;20029;-74
2023/04/08 03:41:47;;;;;;;3.85;2.38;;;6.70;46.70;;;;;;5029731;28;20037;-75
2023/04/08 03:44:13;;;;;;;3.90;2.75;;;6.70;46.80;;;;;;5034798;28;20026;-74
2023/04/08 03:46:39;;;;;;;3.63;2.60;;;6.70;46.80;;;;;;5024503;28;20050;-75
2023/04/08 03:49:04;;;;;;;3.33;1.75;;;6.70;46.90;;;;;;5005851;28;20045;-75
2023/04/08 03:51:30;;;;;;;4.10;2.33;;;6.70;47.00;;;;;;5022738;28;20547;-75
2023/04/08 03:53:56;;;;;;;3.90;2.30;;;6.60;46.80;;;;;;4992189;28;20041;-74
2023/04/08 03:56:23;;;;;;;2.92;2.15;;;6.60;46.90;;;;;;5018047;28;20108;-75
2023/04/08 03:58:49;;;;;;;2.97;2.53;;;6.60;47.00;;;;;;5028651;28;20132;-74
2023/04/08 04:01:15;;;;;;;2.97;2.40;;;6.60;47.00;;;;;;5024654;28;20449;-75
2023/04/08 04:03:41;;;;;;;2.65;2.42;;;6.60;47.10;;;;;;5027674;28;20034;-76
2023/04/08 04:06:07;;;;;;;3.67;2.55;;;6.50;47.00;;;;;;5025444;28;20022;-75
2023/04/08 04:08:33;;;;;;;3.33;2.45;;;6.60;47.10;;;;;;5022914;28;20048;-75
2023/04/08 04:10:59;;;;;;;3.03;2.72;;;6.60;47.20;;;;;;5019685;28;20080;-75
2023/04/08 04:13:25;;;;;;;3.90;2.72;;;6.60;47.30;;;;;;5023566;28;20514;-76
2023/04/08 04:15:51;;;;;;;4.63;3.10;;;6.50;47.10;;;;;;5007113;28;20489;-75
2023/04/08 04:18:17;;;;;;;2.60;2.40;;;6.60;47.30;;;;;;5010252;28;20505;-76
2023/04/08 04:20:43;;;;;;;3.78;3.08;;;6.60;47.30;;;;;;5003145;28;20033;-75
2023/04/08 04:23:09;;;;;;;3.65;2.97;;;6.60;47.30;;;;;;5026996;28;20037;-76
2023/04/08 04:25:35;;;;;;;4.47;2.45;;;6.60;47.40;;;;;;5025809;28;20045;-75
2023/04/08 04:28:02;;;;;;;3.60;2.70;;;6.60;47.40;;;;;;5026442;28;20041;-75
2023/04/08 04:30:28;;;;;;;3.17;2.67;;;6.60;47.50;;;;;;5007992;28;20112;-75
2023/04/08 04:32:55;;;;;;;4.05;2.88;;;6.60;47.50;;;;;;5027823;28;20029;-76
2023/04/08 04:35:21;;;;;;;3.03;2.53;;;6.60;47.50;;;;;;5026442;28;20033;-75
2023/04/08 04:37:49;;;;;;;4.00;3.50;;;6.60;47.50;;;;;;5013593;28;20030;-76
2023/04/08 04:40:14;;;;;;;3.70;2.40;;;6.60;47.60;;;;;;5022476;28;20029;-76
2023/04/08 04:42:40;;;;;;;4.50;3.08;;;6.50;47.50;;;;;;5038325;28;20038;-76
2023/04/08 04:45:08;;;;;;;3.53;2.42;;;6.50;47.50;;;;;;5039147;28;20264;-76
2023/04/08 04:47:34;;;;;;;3.63;2.63;;;6.50;47.60;;;;;;5023489;28;20140;-76
2023/04/08 04:50:00;;;;;;;3.28;2.33;;;6.60;47.80;;;;;;5041817;28;20243;-78
2023/04/08 04:52:26;;;;;;;3.60;2.58;;;6.50;47.60;;;;;;5026949;28;20040;-77
2023/04/08 04:54:51;;;;;;;3.33;2.80;;;6.50;47.70;;;;;;5041632;28;20030;-76
2023/04/08 04:57:17;;;;;;;3.40;2.60;;;6.50;47.70;;;;;;5035735;28;20044;-76
2023/04/08 04:59:43;;;;;;;3.28;2.40;;;6.50;47.70;;;;;;5040713;28;20093;-76
2023/04/08 05:02:09;;;;;;;3.28;2.50;;;6.50;47.80;;;;;;5019899;28;20373;-75
2023/04/08 05:04:35;;;;;;;5.82;2.40;;;6.50;47.80;;;;;;5012557;28;20544;-75
2023/04/08 05:07:01;;;;;;;4.25;2.20;;;6.40;47.70;;;;;;5022851;28;20033;-75
2023/04/08 05:09:28;;;;;;;2.85;2.58;;;6.50;47.90;;;;;;5010238;28;20022;-75
2023/04/08 05:11:54;;;;;;;4.25;2.65;;;6.40;47.80;;;;;;5006273;28;20377;-75
2023/04/08 05:14:20;;;;;;;3.15;2.80;;;6.40;47.80;;;;;;5011145;28;20038;-76
2023/04/08 05:16:46;;;;;;;4.00;2.38;;;6.30;47.70;;;;;;5014082;28;20026;-76
2023/04/08 05:19:12;;;;;;;4.07;2.38;;;6.40;48.00;;;;;;5014164;28;20108;-76
2023/04/08 05:21:38;;;;;;;5.15;2.92;;;6.40;48.00;;;;;;5011754;28;20546;-75
2023/04/08 05:24:04;;;;;;;4.68;2.67;;;6.30;47.90;;;;;;5018108;28;20022;-75
2023/04/08 05:26:30;;;;;;;3.35;3.05;;;6.30;47.90;;;;;;5008937;28;20144;-76
2023/04/08 05:28:56;;;;;;;4.45;3.30;;;6.30;48.00;;;;;;5019629;28;20096;-76
2023/04/08 05:31:22;;;;;;;3.35;3.05;;;6.30;48.00;;;;;;5004627;28;20707;-74
2023/04/08 05:33:48;;;;;;;3.33;2.60;;;6.30;48.00;;;;;;5017693;28;20034;-77
2023/04/08 05:36:14;;;;;;;4.65;2.88;;;6.30;48.00;;;;;;5016062;28;20464;-76
2023/04/08 05:38:42;;;;;;;3.70;3.35;;;6.30;48.00;;;;;;5009822;28;20095;-75
2023/04/08 05:41:07;;;;;;;4.72;3.38;;;6.40;48.20;;;;;;5012413;28;20021;-75
2023/04/08 05:43:34;;;;;;;4.63;3.65;;;6.40;48.20;;;;;;5016627;28;20128;-75
2023/04/08 05:46:04;;;;;;;4.97;3.70;;;6.40;48.10;;;;;;5003797;28;20030;-74
2023/04/08 05:48:30;;;;;;;6.70;3.35;;;6.40;48.10;;;;;;5005180;28;20099;-75
2023/04/08 05:50:56;;;;;;;10.00;4.35;;;6.40;48.00;;;;;;5017772;28;20107;-75
2023/04/08 05:53:23;;;;;;;6.75;3.70;;;6.40;47.90;;;;;;5013888;28;20038;-80
2023/04/08 05:55:49;;;;;;;12.35;4.18;;;6.50;48.10;;;;;;5016197;28;20365;-76
2023/04/08 05:58:15;;;;;;;7.00;3.45;;;6.50;48.30;;;;;;5003829;28;20048;-77
2023/04/08 06:00:41;;;;;;;5.72;4.07;;;6.60;48.80;;;;;;5006079;28;20226;-77
2023/04/08 06:03:07;;;;;;;5.97;3.95;;;6.70;49.20;;;;;;5006997;28;20026;-76
2023/04/08 06:05:33;;;;;;;4.93;3.55;;;6.80;49.60;;;;;;5006392;28;20543;-77
2023/04/08 06:07:59;;;;;;;4.38;3.83;;;7.10;50.60;;;;;;5005592;28;20053;-79
2023/04/08 06:10:25;;;;;;;4.03;3.17;;;7.30;51.00;;;;;;5004500;28;20303;-75
2023/04/08 06:12:51;;;;;;;5.38;3.10;;;7.70;51.50;;;;;;5008937;28;20318;-75
2023/04/08 06:15:17;;;;;;;4.07;3.20;;;8.10;51.90;;;;;;5011674;28;20511;-76
2023/04/08 06:17:43;;;;;;;4.35;3.85;;;8.60;52.20;;;;;;5009825;28;20041;-78
2023/04/08 06:20:09;;;;;;;4.75;3.53;;;8.90;52.00;;;;;;5009713;28;20170;-78
2023/04/08 06:22:35;;;;;;;4.38;3.22;;;9.30;52.20;;;;;;5021217;28;20044;-77
2023/04/08 06:25:01;;;;;;;4.75;3.53;;;9.60;52.10;;;;;;5008634;28;20080;-76
2023/04/08 06:27:27;;;;;;;5.47;3.55;;;9.90;52.10;;;;;;5008582;28;20063;-75
2023/04/08 06:29:54;;;;;;;4.82;3.20;;;10.10;52.10;;;;;;5012763;28;20037;-76
2023/04/08 06:32:20;;;;;;;6.25;3.47;;;10.30;52.20;;;;;;5016262;28;20445;-75
2023/04/08 06:34:47;;;;;;;4.97;4.25;;;10.50;52.30;;;;;;5012661;28;20025;-75
2023/04/08 06:37:13;;;;;;;7.40;4.25;;;10.80;52.70;;;;;;5012597;28;20060;-75
2023/04/08 06:39:39;;;;;;;4.05;3.47;;;11.00;52.80;;;;;;5009120;28;20084;-75
2023/04/08 06:42:05;;;;;;;5.07;3.65;;;11.30;53.00;;;;;;5011330;28;20049;-74
2023/04/08 06:44:38;;;;;;;;;;;11.70;53.60;;;;;;5005284;28;20030;-76
2023/04/08 06:47:04;;;;;;;6.82;4.95;;;12.10;53.40;;;;;;5011696;28;20438;-75
2023/04/08 06:49:30;;;;;;;4.05;3.20;;;12.40;52.90;;;;;;5009380;28;20516;-75
2023/04/08 06:51:56;;;;;;;5.80;3.42;;;12.60;52.90;;;;;;5016565;28;20112;-78
2023/04/08 06:54:22;;;;;;;4.75;3.78;;;12.90;53.10;;;;;;5018235;28;20088;-75
2023/04/08 06:56:47;;;;;;;3.50;3.20;;;13.20;53.10;;;;;;5014699;28;20041;-76
2023/04/08 06:59:13;;;;;;;5.90;3.08;;;13.40;52.80;;;;;;5002468;28;20033;-75
2023/04/08 07:01:40;;;;;;;6.07;3.53;;;13.50;52.60;;;;;;5014701;28;20421;-75
2023/04/08 07:04:06;;;;;;;4.72;3.95;;;13.60;52.60;;;;;;5014396;28;20127;-76
2023/04/08 07:06:32;;;;;;;4.47;3.42;;;13.70;52.40;;;;;;5015463;28;20103;-76
2023/04/08 07:08:58;;;;;;;5.13;2.90;;;13.70;52.20;;;;;;5016278;28;20048;-76
2023/04/08 07:11:24;;;;;;;4.65;3.15;;;13.70;52.00;;;;;;5015992;28;20034;-75
2023/04/08 07:13:51;;;;;;;9.07;4.22;;;13.60;51.70;;;;;;5013333;28;20038;-75
2023/04/08 07:16:17;;;;;;;3.97;3.20;;;13.60;51.70;;;;;;5014035;28;20026;-76
2023/04/08 07:18:43;;;;;;;3.33;2.70;;;13.50;51.50;;;;;;5013437;28;20033;-76
2023/04/08 07:21:09;;;;;;;5.20;3.22;;;13.40;51.40;;;;;;5018292;28;20037;-75
2023/04/08 07:23:36;;;;;;;6.30;3.08;;;13.40;51.50;;;;;;5018744;28;20095;-74
2023/04/08 07:26:06;;;;;;;4.82;3.15;;;13.30;51.40;;;;;;5020470;28;20515;-75
2023/04/08 07:28:33;;;;;;;3.92;2.72;;;13.20;51.30;;;;;;5019559;28;20041;-75
2023/04/08 07:31:29;;;;;;;4.22;3.10;;;13.10;51.30;;;;;;5022523;28;20040;-77
2023/04/08 07:33:55;;;;;;;4.38;3.20;;;13.10;51.30;;;;;;5004609;28;20041;-76
2023/04/08 07:36:21;;;;;;;6.00;3.85;;;13.10;51.40;;;;;;5014559;28;20033;-76
2023/04/08 07:38:47;;;;;;;4.50;3.08;;;13.00;51.20;;;;;;5020249;28;20087;-76
2023/04/08 07:41:13;;;;;;;6.85;3.05;;;13.00;51.20;;;;;;5021557;28;20033;-76
2023/04/08 07:43:39;;;;;;;3.83;3.00;;;13.00;51.20;;;;;;5013878;28;20037;-76
2023/04/08 07:46:05;;;;;;;3.58;3.00;;;13.00;51.10;;;;;;5020706;28;20120;-76
2023/04/08 07:48:32;;;;;;;5.70;3.20;;;13.00;51.10;;;;;;5014310;28;20437;-76
2023/04/08 07:51:03;;;;;;;5.05;3.33;;;13.00;51.00;;;;;;5008174;28;20124;-77
2023/04/08 07:53:29;;;;;;;4.72;2.95;;;13.00;50.90;;;;;;5014514;28;20033;-77
2023/04/08 07:55:56;;;;;;;15.77;4.63;;;13.10;51.00;;;;;;5019059;28;20037;-78
2023/04/08 07:58:24;;;;;;;4.53;2.75;;;13.10;51.00;;;;;;5016296;28;20045;-79
2023/04/08 08:00:50;;;;;;;4.30;3.05;;;13.20;51.00;;;;;;5019058;28;20095;-78
2023/04/08 08:03:16;;;;;;;4.18;2.47;;;13.30;51.10;;;;;;5010565;28;20030;-79
2023/04/08 08:05:42;;;;;;;2.85;2.22;;;13.40;51.00;;;;;;4982629;28;20048;-78
2023/04/08 08:08:10;;;;;;;6.38;3.13;;;13.40;50.70;;;;;;5009019;28;20045;-81
2023/04/08 08:10:39;;;;;;;2.55;2.35;;;13.40;50.50;;;;;;5011526;28;20037;-77
2023/04/08 08:13:06;;;;;;;2.80;2.08;;;13.50;50.60;;;;;;4992971;28;20045;-79
2023/04/08 08:15:32;;;;;;;4.85;3.20;;;13.50;50.40;;;;;;4982137;28;20530;-78
2023/04/08 08:17:58;;;;;;;2.97;2.05;;;13.50;50.20;;;;;;4991978;28;20149;-79
2023/04/08 08:20:24;;;;;;;2.15;1.92;;;13.60;50.20;;;;;;5014290;28;20606;-79
2023/04/08 08:22:51;;;;;;;3.22;2.22;;;13.70;50.20;;;;;;4997703;28;20618;-79
2023/04/08 08:25:17;;;;;;;2.35;2.15;;;13.70;50.00;;;;;;5013459;28;20160;-78
2023/04/08 08:27:44;;;;;;;3.28;2.00;;;13.80;50.10;;;;;;5015728;28;20091;-79
2023/04/08 08:30:10;;;;;;;3.75;2.85;;;13.80;49.90;;;;;;5010284;28;20033;-79
2023/04/08 08:32:36;;;;;;;3.53;2.40;;;13.80;49.70;;;;;;5015768;28;20443;-78
2023/04/08 08:35:02;;;;;;;3.00;2.05;;;14.00;50.00;;;;;;5015634;28;20034;-77
2023/04/08 08:37:28;;;;;;;3.45;1.77;;;14.00;49.70;;;;;;4993842;28;20513;-77
2023/04/08 08:39:54;;;;;;;4.30;2.15;;;14.10;49.80;;;;;;5010580;28;20033;-78
2023/04/08 08:42:22;;;;;;;2.50;2.17;;;14.20;49.80;;;;;;4999831;28;20130;-78
2023/04/08 08:44:48;;;;;;;4.57;2.53;;;14.20;49.60;;;;;;4998281;28;20061;-77
2023/04/08 08:47:18;;;;;;;2.75;2.15;;;14.30;49.70;;;;;;5011517;28;20061;-78
2023/04/08 08:49:44;;;;;;;6.78;3.05;;;14.30;49.50;;;;;;4995112;28;20048;-78
2023/04/08 08:52:14;;;;;;;3.63;2.58;;;14.40;49.60;;;;;;5011473;28;20413;-77
2023/04/08 08:54:40;;;;;;;2.97;2.28;;;14.40;49.50;;;;;;5010967;28;20068;-77
2023/04/08 08:57:17;;;;;;;4.47;2.50;;;14.40;49.40;;;;;;5021411;28;20057;-77
2023/04/08 08:59:46;;;;;;;4.00;2.20;;;14.50;49.40;;;;;;5019506;28;20079;-78
2023/04/08 09:02:26;;;;;;;5.32;2.33;;;14.60;49.50;;;;;;5002011;28;20658;-77
2023/04/08 09:05:02;;;;;;;3.08;2.67;;;14.60;49.30;;;;;;5006937;28;20026;-79
2023/04/08 09:07:29;;;;;;;4.85;2.83;;;14.70;49.40;;;;;;5012540;28;20402;-77
2023/04/08 09:09:57;;;;;;;2.20;2.00;;;14.80;50.00;;;;;;5006992;28;20115;-78
2023/04/08 09:12:24;;;;;;;3.83;2.10;;;14.90;49.40;;;;;;5013706;28;20026;-78
2023/04/08 09:14:50;;;;;;;4.25;2.42;;;15.00;49.40;;;;;;5016120;28;20508;-78
2023/04/08 09:17:32;;;;;;;5.15;2.65;;;15.10;49.40;;;;;;4994024;28;20116;-77
2023/04/08 09:20:10;;;;;;;2.85;1.95;;;15.30;49.50;;;;;;5012933;28;20436;-78
2023/04/08 09:22:56;;;;;;;4.18;1.95;;;15.40;49.50;;;;;;5018942;28;20503;-78
2023/04/08 09:25:24;;;;;;;2.42;2.10;;;15.60;49.60;;;;;;5016972;28;20047;-77
2023/04/08 09:27:51;;;;;;;3.05;2.58;;;15.80;49.60;;;;;;5015292;28;20064;-77
2023/04/08 09:30:18;;;;;;;3.08;2.05;;;16.00;49.70;;;;;;5015230;28;20481;-78
2023/04/08 09:32:56;;;;;;;2.33;1.92;;;16.20;49.70;;;;;;4977731;28;20044;-76
2023/04/08 09:35:24;;;;;;;2.40;1.90;;;16.40;49.60;;;;;;5019445;28;20564;-75
2023/04/08 09:37:51;;;;;;;2.60;1.80;;;16.60;49.60;;;;;;5017924;28;20029;-75
2023/04/08 09:40:17;;;;;;;3.65;1.77;;;16.90;49.80;;;;;;5009870;28;20773;-78
2023/04/08 09:42:47;;;;;;;1.95;1.60;;;17.00;49.60;;;;;;5018772;28;20056;-77
2023/04/08 09:45:14;;;;;;;1.63;1.52;;;17.20;49.70;;;;;;5008946;28;20179;-75
2023/04/08 09:47:57;;;;;;;3.08;2.25;;;17.40;49.60;;;;;;5017214;28;20056;-75
2023/04/08 09:50:27;;;;;;;4.82;1.92;;;17.50;49.30;;;;;;5000281;28;20044;-76
2023/04/08 09:53:04;;;;;;;4.40;2.10;;;17.70;49.50;;;;;;5012114;28;20029;-78
2023/04/08 09:55:35;;;;;;;2.92;1.50;;;17.80;49.30;;;;;;4996832;28;20037;-75
2023/04/08 09:58:07;;;;;;;3.20;1.77;;;18.00;49.30;;;;;;5013141;28;20124;-76
2023/04/08 10:00:49;;;;;;;3.38;1.73;;;18.10;49.10;;;;;;5001255;28;20060;-77
2023/04/08 10:03:25;;;;;;;5.53;1.77;;;18.20;48.90;;;;;;5011135;28;20044;-76
2023/04/08 10:05:52;;;;;;;1.60;1.38;;;18.40;49.00;;;;;;5012749;28;20509;-76
2023/04/08 10:08:19;;;;;;;3.20;1.63;;;18.50;48.90;;;;;;5005523;28;20120;-76
2023/04/08 10:10:45;;;;;;;2.08;1.88;;;18.50;48.70;;;;;;4998033;28;20033;-76
2023/04/08 10:13:12;;;;;;;2.60;1.80;;;18.60;48.70;;;;;;5006726;28;20033;-76
2023/04/08 10:15:39;;;;;;;3.33;1.77;;;18.70;48.60;;;;;;4990986;28;20025;-75
2023/04/08 10:18:08;;;;;;;4.90;2.38;;;18.80;48.60;;;;;;5017228;28;20124;-76
2023/04/08 10:20:37;;;;;;;3.97;1.90;;;18.80;48.50;;;;;;5019413;28;20025;-76
2023/04/08 10:23:14;;;;;;;2.13;1.48;;;18.90;48.50;;;;;;5035324;28;20073;-78
2023/04/08 10:25:47;;;;;;;1.77;1.33;;;19.00;48.60;;;;;;5034139;28;20030;-75
2023/04/08 10:28:18;;;;;;;2.65;1.55;;;19.00;48.50;;;;;;5039489;28;20144;-75
2023/04/08 10:30:55;;;;;;;3.83;1.88;;;19.10;48.50;;;;;;5031771;28;20080;-76
2023/04/08 10:33:28;;;;;;;2.85;1.70;;;19.10;48.20;;;;;;5028607;28;20381;-75
2023/04/08 10:36:16;;;;;;;2.83;1.60;;;19.20;48.40;;;;;;5020217;28;20034;-75
2023/04/08 10:38:42;;;;;;;3.28;1.13;;;19.20;48.40;;;;;;4994376;28;20409;-76
2023/04/08 10:41:20;;;;;;;2.92;1.50;;;19.30;48.40;;;;;;4985119;28;20375;-74
2023/04/08 10:43:46;;;;;;;3.25;1.13;;;19.30;48.20;;;;;;5012719;28;20112;-75
2023/04/08 10:46:12;;;;;;;3.13;1.58;;;19.40;48.40;;;;;;5016838;28;20041;-74
2023/04/08 10:48:38;;;;;;;2.22;1.20;;;19.40;48.20;;;;;;5008158;28;20049;-75
2023/04/08 10:51:04;;;;;;;1.40;1.20;;;19.50;48.30;;;;;;5007718;28;20041;-75
2023/04/08 10:53:35;;;;;;;2.58;1.17;;;19.50;48.10;;;;;;5002391;28;20384;-75
2023/04/08 10:56:05;;;;;;;1.35;1.20;;;19.60;48.10;;;;;;5013535;28;20048;-76
2023/04/08 10:58:32;;;;;;;2.00;1.60;;;19.70;48.10;;;;;;4975972;28;20025;-76
2023/04/08 11:01:06;;;;;;;1.45;1.30;;;19.80;48.10;;;;;;4990162;28;20038;-77
2023/04/08 11:03:36;;;;;;;1.70;1.10;;;19.80;47.90;;;;;;5007247;28;20017;-75
2023/04/08 11:06:02;;;;;;;4.68;1.25;;;19.90;47.90;;;;;;4993427;28;20049;-75
2023/04/08 11:08:29;;;;;;;1.55;1.30;;;19.90;47.60;;;;;;5005811;28;20042;-76
2023/04/08 11:10:57;;;;;;;3.00;1.20;;;20.00;47.40;;;;;;5009388;28;20041;-76
2023/04/08 11:13:23;;;;;;;2.58;0.95;;;20.10;47.40;;;;;;5011002;28;20041;-76
2023/04/08 11:15:49;;;;;;;1.55;1.08;;;20.20;47.40;;;;;;4975780;28;20146;-76
2023/04/08 11:18:16;;;;;;;0.85;0.82;;;20.30;47.30;;;;;;5009444;28;20355;-75
2023/04/08 11:20:46;;;;;;;2.40;1.33;;;20.40;47.20;;;;;;5009627;28;20022;-75
2023/04/08 11:23:16;;;;;;;2.17;1.60;;;20.50;47.10;;;;;;4989227;28;20527;-76
2023/04/08 11:25:43;;;;;;;1.77;1.13;;;20.50;46.90;;;;;;5013705;28;20026;-75
2023/04/08 11:28:13;;;;;;;2.92;1.67;;;20.60;46.80;;;;;;5010980;28;20103;-76
2023/04/08 11:30:40;;;;;;;2.45;1.52;;;20.80;46.90;;;;;;5013692;28;20032;-75
2023/04/08 11:33:06;;;;;;;2.90;1.58;;;20.90;46.80;;;;;;5018297;28;20044;-76
2023/04/08 11:35:34;;;;;;;3.28;1.40;;;21.10;46.90;;;;;;4997680;28;20029;-76
2023/04/08 11:38:04;;;;;;;4.13;1.40;;;21.20;46.70;;;;;;4998844;28;20459;-77
2023/04/08 11:40:30;;;;;;;3.08;1.45;;;21.40;46.80;;;;;;5009740;28;20532;-75
2023/04/08 11:42:56;;;;;;;2.90;1.48;;;21.50;46.70;;;;;;5014917;28;20037;-76
2023/04/08 11:45:22;;;;;;;2.08;1.20;;;21.60;46.70;;;;;;4997729;28;20318;-77
2023/04/08 11:47:48;;;;;;;2.65;1.63;;;21.70;46.70;;;;;;5014594;28;20497;-76
2023/04/08 11:50:28;;;;;;;2.13;1.23;;;21.80;46.70;;;;;;4992938;28;20401;-76
2023/04/08 11:52:55;;;;;;;5.90;2.90;;;22.00;46.60;;;;;;5011599;28;20586;-76
2023/04/08 11:55:26;;;;;;;4.32;2.88;;;22.10;46.60;;;;;;5019412;28;20065;-76
2023/04/08 11:57:53;;;;;;;5.57;3.42;;;22.10;45.90;;;;;;5000167;28;20065;-76
2023/04/08 12:00:20;;;;;;;4.38;3.50;;;22.00;45.40;;;;;;5014680;28;20036;-77
2023/04/08 12:02:47;;;;;;;5.28;3.30;;;21.90;45.00;;;;;;4996006;28;20501;-76
2023/04/08 12:05:14;;;;;;;3.42;3.10;;;21.80;44.80;;;;;;5013937;28;20571;-77
2023/04/08 12:07:41;;;;;;;3.22;2.88;;;21.70;44.30;;;;;;5017268;28;20412;-82
2023/04/08 12:10:10;;;;;;;4.70;3.03;;;21.50;43.60;;;;;;5008509;28;20490;-82
2023/04/08 12:12:36;;;;;;;3.85;2.80;;;21.40;43.40;;;;;;4996181;28;20018;-76
2023/04/08 12:15:03;;;;;;;3.15;2.67;;;21.40;43.30;;;;;;5016054;28;20121;-74
2023/04/08 12:17:29;;;;;;;3.65;2.35;;;21.30;42.90;;;;;;5013871;28;20386;-74
2023/04/08 12:19:55;;;;;;;3.63;2.78;;;21.30;42.60;;;;;;5014338;28;20048;-76
2023/04/08 12:22:22;;;;;;;3.65;2.88;;;21.20;42.40;;;;;;5006589;28;20287;-75
2023/04/08 12:24:47;;;;;;;4.47;3.10;;;21.10;42.00;;;;;;5018347;28;20033;-74
2023/04/08 12:27:14;;;;;;;3.58;3.03;;;21.00;41.80;;;;;;5017187;28;20107;-75
2023/04/08 12:29:42;;;;;;;2.85;2.38;;;21.00;41.60;;;;;;5003334;28;20057;-74
2023/04/08 12:32:08;;;;;;;4.15;2.70;;;20.90;41.20;;;;;;5003865;28;20099;-78
2023/04/08 12:34:34;;;;;;;4.70;2.97;;;21.00;41.40;;;;;;5013644;28;20292;-76
2023/04/08 12:37:01;;;;;;;4.38;2.42;;;21.10;41.60;;;;;;5015892;28;20034;-76
2023/04/08 12:39:27;;;;;;;3.92;2.72;;;21.10;41.30;;;;;;5012630;28;20070;-74
2023/04/08 12:41:53;;;;;;;3.25;2.42;;;21.20;41.20;;;;;;5012888;28;20112;-74
2023/04/08 12:44:19;;;;;;;3.85;2.63;;;21.20;40.80;;;;;;5010543;28;20036;-77
2023/04/08 12:46:45;;;;;;;7.43;2.38;;;21.20;40.60;;;;;;4989060;28;20232;-78
2023/04/08 12:49:11;;;;;;;4.43;2.78;;;21.20;40.50;;;;;;4992376;28;20098;-81
2023/04/08 12:51:38;;;;;;;5.18;2.00;;;21.30;40.70;;;;;;4998931;28;20048;-77
2023/04/08 12:54:04;;;;;;;3.55;1.75;;;21.30;40.60;;;;;;5011054;28;20033;-76
2023/04/08 12:56:31;;;;;;;2.75;2.08;;;21.40;40.60;;;;;;4991492;28;20067;-78